Time;durP1;ratioP1;P1;durP2;ratioP2;P2;SDS_P1;SDS_P2;PMS_P1;PMS_P2;Temp;Humidity;BMP_temperature;BMP_pressure;BME280_temperature;BME280_humidity;BME280_pressure;Samples;Min_cycle;Max_cycle;Signal;HPM_P1;HPM_P2
2023/08/16 00:01:19;;;;;;;8.73;6.45;;;;;;;;;;5025192;28;20039;-81
2023/08/16 00:03:45;;;;;;;12.27;8.02;;;;;;;;;;5026222;28;20033;-83
2023/08/16 00:06:14;;;;;;;11.88;7.40;;;;;;;;;;5025235;28;20037;-80
2023/08/16 00:08:40;;;;;;;15.75;8.38;;;;;;;;;;5025159;28;20043;-84
2023/08/16 00:11:12;;;;;;;11.07;7.40;;;;;;;;;;5029473;28;20717;-83
2023/08/16 00:13:38;;;;;;;10.83;7.03;;;;;;;;;;5024876;28;20072;-80
2023/08/16 00:16:05;;;;;;;13.43;7.93;;;;;;;;;;5028078;28;21946;-83
2023/08/16 00:18:33;;;;;;;12.05;7.40;;;;;;;;;;5027628;28;20966;-83
2023/08/16 00:21:02;;;;;;;14.98;7.20;;;;;;;;;;5024209;28;20053;-81
2023/08/16 00:23:28;;;;;;;12.95;7.65;;;;;;;;;;5025127;28;20065;-81
2023/08/16 00:25:54;;;;;;;15.32;7.57;;;;;;;;;;5023655;28;20203;-82
2023/08/16 00:28:20;;;;;;;12.23;6.70;;;;;;;;;;5024666;28;20025;-83
2023/08/16 00:30:48;;;;;;;14.15;8.45;;;;;;;;;;5032427;28;20132;-81
2023/08/16 00:33:14;;;;;;;14.65;7.88;;;;;;;;;;5024004;28;20409;-83
2023/08/16 00:35:40;;;;;;;13.82;8.35;;;;;;;;;;5023629;28;20098;-81
2023/08/16 00:38:06;;;;;;;10.57;7.88;;;;;;;;;;5040141;28;20044;-80
2023/08/16 00:40:32;;;;;;;11.50;8.55;;;;;;;;;;5031879;28;20171;-81
2023/08/16 00:42:58;;;;;;;10.82;7.55;;;;;;;;;;5031918;28;20033;-81
2023/08/16 00:45:24;;;;;;;14.93;8.48;;;;;;;;;;5040461;28;20048;-79
2023/08/16 00:47:50;;;;;;;15.85;8.77;;;;;;;;;;5024691;28;20244;-83
2023/08/16 00:50:23;;;;;;;13.15;7.90;;;;;;;;;;5023861;28;20141;-83
2023/08/16 00:52:49;;;;;;;14.60;7.90;;;;;;;;;;5023494;28;20112;-80
2023/08/16 00:55:15;;;;;;;10.38;7.55;;;;;;;;;;5039924;28;20041;-79
2023/08/16 00:57:41;;;;;;;14.70;9.20;;;;;;;;;;5024250;28;20030;-83
2023/08/16 01:00:08;;;;;;;16.83;10.27;;;;;;;;;;5023418;28;20037;-78
2023/08/16 01:02:36;;;;;;;12.02;8.65;;;;;;;;;;5039717;28;20104;-81
2023/08/16 01:05:03;;;;;;;16.85;9.45;;;;;;;;;;5031266;28;20029;-80
2023/08/16 01:07:29;;;;;;;16.27;9.45;;;;;;;;;;5031602;28;20030;-84
2023/08/16 01:09:55;;;;;;;20.92;11.48;;;;;;;;;;5039224;28;20037;-78
2023/08/16 01:12:24;;;;;;;15.32;9.55;;;;;;;;;;5030405;28;20033;-83
2023/08/16 01:14:57;;;;;;;12.48;9.80;;;;;;;;;;5022988;28;20041;-80
2023/08/16 01:17:26;;;;;;;13.90;9.70;;;;;;;;;;5023125;28;20033;-80
2023/08/16 01:19:53;;;;;;;18.88;9.75;;;;;;;;;;5039113;28;20049;-77
2023/08/16 01:22:23;;;;;;;11.27;8.73;;;;;;;;;;5039054;28;20052;-80
2023/08/16 01:24:59;;;;;;;11.13;8.60;;;;;;;;;;5024016;28;20045;-80
2023/08/16 01:27:25;;;;;;;12.88;10.18;;;;;;;;;;5022486;28;20029;-81
2023/08/16 01:29:53;;;;;;;13.38;9.60;;;;;;;;;;5023535;28;20686;-82
2023/08/16 01:32:23;;;;;;;10.80;8.85;;;;;;;;;;5031275;28;20026;-83
2023/08/16 01:34:49;;;;;;;11.32;8.75;;;;;;;;;;5023654;28;20044;-84
2023/08/16 01:37:18;;;;;;;12.27;9.30;;;;;;;;;;5031775;28;20040;-80
2023/08/16 01:39:44;;;;;;;14.00;10.13;;;;;;;;;;5023386;28;20778;-83
2023/08/16 01:42:15;;;;;;;19.58;11.27;;;;;;;;;;5023523;28;20063;-78
2023/08/16 01:44:41;;;;;;;17.80;11.67;;;;;;;;;;5023983;28;20068;-83
2023/08/16 01:47:08;;;;;;;15.73;11.40;;;;;;;;;;5023277;28;20295;-84
2023/08/16 01:49:37;;;;;;;23.50;13.60;;;;;;;;;;5031616;28;20095;-80
2023/08/16 01:52:03;;;;;;;17.48;12.38;;;;;;;;;;5022577;28;20049;-78
2023/08/16 01:54:30;;;;;;;19.23;12.65;;;;;;;;;;5023535;28;20075;-82
2023/08/16 01:56:56;;;;;;;17.95;12.00;;;;;;;;;;5022366;28;20121;-82
2023/08/16 01:59:22;;;;;;;17.98;13.00;;;;;;;;;;5023330;28;20112;-79
2023/08/16 02:01:48;;;;;;;20.73;14.48;;;;;;;;;;5023571;28;20038;-80
2023/08/16 02:04:16;;;;;;;20.00;14.48;;;;;;;;;;5023651;28;20551;-83
2023/08/16 02:06:42;;;;;;;24.05;13.93;;;;;;;;;;5021171;28;20044;-81
2023/08/16 02:09:08;;;;;;;21.83;14.70;;;;;;;;;;5014057;28;20079;-83
2023/08/16 02:11:34;;;;;;;22.23;12.82;;;;;;;;;;5022872;28;20400;-78
2023/08/16 02:14:00;;;;;;;19.42;14.05;;;;;;;;;;5022461;28;20059;-83
2023/08/16 02:16:28;;;;;;;20.85;13.88;;;;;;;;;;5039460;28;20132;-81
2023/08/16 02:18:54;;;;;;;15.32;12.57;;;;;;;;;;5022206;28;20037;-82
2023/08/16 02:21:20;;;;;;;21.23;12.80;;;;;;;;;;5023671;28;20033;-83
2023/08/16 02:23:46;;;;;;;21.70;12.95;;;;;;;;;;5031878;28;20115;-82
2023/08/16 02:26:15;;;;;;;17.40;12.20;;;;;;;;;;5022434;28;20041;-83
2023/08/16 02:28:41;;;;;;;19.77;14.20;;;;;;;;;;5021768;28;20030;-81
2023/08/16 02:31:07;;;;;;;21.67;15.32;;;;;;;;;;5022608;28;20033;-83
2023/08/16 02:33:33;;;;;;;25.80;15.25;;;;;;;;;;5039071;28;20025;-82
2023/08/16 02:35:59;;;;;;;19.73;14.65;;;;;;;;;;5023114;28;20029;-80
2023/08/16 02:38:25;;;;;;;25.15;15.68;;;;;;;;;;5031799;28;20030;-82
2023/08/16 02:40:52;;;;;;;21.48;15.18;;;;;;;;;;5023343;28;20045;-83
2023/08/16 02:43:18;;;;;;;21.95;15.77;;;;;;;;;;5038196;28;20470;-80
2023/08/16 02:45:44;;;;;;;28.05;17.30;;;;;;;;;;5023201;28;20038;-81
2023/08/16 02:48:12;;;;;;;25.95;17.92;;;;;;;;;;5021862;28;20041;-80
2023/08/16 02:50:38;;;;;;;22.27;15.55;;;;;;;;;;5024161;28;20038;-81
2023/08/16 02:53:04;;;;;;;24.10;16.95;;;;;;;;;;5026900;28;20041;-81
2023/08/16 02:55:30;;;;;;;20.95;16.23;;;;;;;;;;5026521;28;20033;-80
2023/08/16 02:57:56;;;;;;;29.15;16.67;;;;;;;;;;5041897;28;20419;-81
2023/08/16 03:00:22;;;;;;;23.05;16.35;;;;;;;;;;5034384;28;20040;-80
2023/08/16 03:02:48;;;;;;;23.00;16.45;;;;;;;;;;5026112;28;20041;-80
2023/08/16 03:05:14;;;;;;;23.52;17.17;;;;;;;;;;5041554;28;20038;-83
2023/08/16 03:07:42;;;;;;;27.33;17.55;;;;;;;;;;5041401;28;20035;-81
2023/08/16 03:10:11;;;;;;;21.63;15.73;;;;;;;;;;5026287;28;20045;-83
2023/08/16 03:12:39;;;;;;;24.02;16.55;;;;;;;;;;5041757;28;20025;-82
2023/08/16 03:15:06;;;;;;;22.40;16.08;;;;;;;;;;5026444;28;20068;-81
2023/08/16 03:17:32;;;;;;;23.35;16.10;;;;;;;;;;5025396;28;20151;-80
2023/08/16 03:19:59;;;;;;;22.45;16.48;;;;;;;;;;5034227;28;21037;-82
2023/08/16 03:22:29;;;;;;;28.73;17.80;;;;;;;;;;5026538;28;20029;-83
2023/08/16 03:24:57;;;;;;;24.33;17.05;;;;;;;;;;5018299;28;20038;-81
2023/08/16 03:27:23;;;;;;;22.45;16.70;;;;;;;;;;5025404;28;20467;-79
2023/08/16 03:29:49;;;;;;;24.30;16.90;;;;;;;;;;5025656;28;20044;-80
2023/08/16 03:32:15;;;;;;;21.55;15.80;;;;;;;;;;5041632;28;20122;-83
2023/08/16 03:34:42;;;;;;;21.85;16.75;;;;;;;;;;5041426;28;20025;-81
2023/08/16 03:37:08;;;;;;;22.35;16.50;;;;;;;;;;5025486;28;20033;-79
2023/08/16 03:39:34;;;;;;;24.40;17.27;;;;;;;;;;5025472;28;20242;-82
2023/08/16 03:42:00;;;;;;;21.48;16.60;;;;;;;;;;5024237;28;20052;-80
2023/08/16 03:44:26;;;;;;;20.55;15.85;;;;;;;;;;5025894;28;20037;-81
2023/08/16 03:46:57;;;;;;;19.63;15.43;;;;;;;;;;5024743;28;20549;-80
2023/08/16 03:49:25;;;;;;;20.38;15.73;;;;;;;;;;5025672;28;20037;-84
2023/08/16 03:51:51;;;;;;;21.23;14.23;;;;;;;;;;5025465;28;20095;-80
2023/08/16 03:54:19;;;;;;;18.73;13.55;;;;;;;;;;5025007;28;20041;-83
2023/08/16 03:56:45;;;;;;;22.88;14.85;;;;;;;;;;5024481;28;20103;-81
2023/08/16 03:59:11;;;;;;;26.38;16.13;;;;;;;;;;5033281;28;20033;-84
2023/08/16 04:01:37;;;;;;;22.05;15.55;;;;;;;;;;5025183;28;20033;-81
2023/08/16 04:04:06;;;;;;;24.38;15.80;;;;;;;;;;5025055;28;20048;-80
2023/08/16 04:06:35;;;;;;;20.02;15.02;;;;;;;;;;5024254;28;21570;-82
2023/08/16 04:09:01;;;;;;;20.95;15.10;;;;;;;;;;5025073;28;20033;-81
2023/08/16 04:11:27;;;;;;;22.55;15.50;;;;;;;;;;5024646;28;20447;-83
2023/08/16 04:13:55;;;;;;;20.25;15.25;;;;;;;;;;5025598;28;20033;-84
2023/08/16 04:16:21;;;;;;;24.85;14.43;;;;;;;;;;5024716;28;20034;-81
2023/08/16 04:18:50;;;;;;;18.98;15.50;;;;;;;;;;5024843;28;20039;-83
2023/08/16 04:21:18;;;;;;;21.17;14.50;;;;;;;;;;5023962;28;20037;-79
2023/08/16 04:23:44;;;;;;;23.20;13.52;;;;;;;;;;5024083;28;20037;-81
2023/08/16 04:26:10;;;;;;;18.55;14.50;;;;;;;;;;5032261;28;20052;-82
2023/08/16 04:28:36;;;;;;;26.25;15.32;;;;;;;;;;5025258;28;20053;-80
2023/08/16 04:31:03;;;;;;;20.55;14.07;;;;;;;;;;5017408;28;20636;-76
2023/08/16 04:33:32;;;;;;;21.60;14.20;;;;;;;;;;5040832;28;20025;-79
2023/08/16 04:36:00;;;;;;;26.75;14.60;;;;;;;;;;5040841;28;20207;-83
2023/08/16 04:38:28;;;;;;;23.25;15.07;;;;;;;;;;5024476;28;20030;-81
2023/08/16 04:40:54;;;;;;;21.85;14.73;;;;;;;;;;5041930;28;20130;-83
2023/08/16 04:43:20;;;;;;;18.63;14.57;;;;;;;;;;5035464;28;20454;-79
2023/08/16 04:45:48;;;;;;;19.85;13.57;;;;;;;;;;5039995;28;20056;-83
2023/08/16 04:48:14;;;;;;;27.13;14.82;;;;;;;;;;5037573;28;20033;-78
2023/08/16 04:50:40;;;;;;;29.13;14.27;;;;;;;;;;5017595;28;20022;-79
2023/08/16 04:53:09;;;;;;;20.02;14.45;;;;;;;;;;5035756;28;20018;-83
2023/08/16 04:55:35;;;;;;;24.40;14.57;;;;;;;;;;5025461;28;20061;-78
2023/08/16 04:58:03;;;;;;;23.75;13.23;;;;;;;;;;5040598;28;20065;-81
2023/08/16 05:00:29;;;;;;;20.38;13.65;;;;;;;;;;5024625;28;20037;-81
2023/08/16 05:02:55;;;;;;;22.77;12.95;;;;;;;;;;5032814;28;20048;-83
2023/08/16 05:05:21;;;;;;;24.60;12.75;;;;;;;;;;5038448;28;20454;-81
2023/08/16 05:07:47;;;;;;;14.82;11.93;;;;;;;;;;5023993;28;20029;-82
2023/08/16 05:10:13;;;;;;;19.00;13.63;;;;;;;;;;5036329;28;20025;-77
2023/08/16 05:12:39;;;;;;;19.27;13.55;;;;;;;;;;5017691;28;20335;-80
2023/08/16 05:15:05;;;;;;;18.33;12.60;;;;;;;;;;5032158;28;20080;-83
2023/08/16 05:17:31;;;;;;;20.85;14.15;;;;;;;;;;5022981;28;20064;-80
2023/08/16 05:19:57;;;;;;;18.55;14.30;;;;;;;;;;5015892;28;20037;-80
2023/08/16 05:22:24;;;;;;;19.95;13.68;;;;;;;;;;5024175;28;20033;-81
2023/08/16 05:24:50;;;;;;;22.33;14.30;;;;;;;;;;5019343;28;20737;-82
2023/08/16 05:27:16;;;;;;;21.92;13.88;;;;;;;;;;5028502;28;20430;-80
2023/08/16 05:29:45;;;;;;;19.10;13.70;;;;;;;;;;5031285;28;20072;-81
2023/08/16 05:32:11;;;;;;;19.77;13.45;;;;;;;;;;5022033;28;20025;-80
2023/08/16 05:34:37;;;;;;;19.10;13.48;;;;;;;;;;5031969;28;20036;-81
2023/08/16 05:37:05;;;;;;;24.00;14.30;;;;;;;;;;5015447;28;20025;-84
2023/08/16 05:39:31;;;;;;;21.20;14.00;;;;;;;;;;5022839;28;20107;-82
2023/08/16 05:41:57;;;;;;;18.13;13.48;;;;;;;;;;5021901;28;20722;-84
2023/08/16 05:44:23;;;;;;;21.30;14.60;;;;;;;;;;5023214;28;20065;-79
2023/08/16 05:46:49;;;;;;;18.40;12.90;;;;;;;;;;5015540;28;20113;-81
2023/08/16 05:49:15;;;;;;;18.98;12.75;;;;;;;;;;5022565;28;20160;-82
2023/08/16 05:51:41;;;;;;;23.95;15.27;;;;;;;;;;5023399;28;20100;-80
2023/08/16 05:54:07;;;;;;;24.90;15.13;;;;;;;;;;5038803;28;20073;-83
2023/08/16 05:56:37;;;;;;;27.45;15.68;;;;;;;;;;5023611;28;20056;-81
2023/08/16 05:59:03;;;;;;;28.20;16.10;;;;;;;;;;5022999;28;20080;-83
2023/08/16 06:01:29;;;;;;;18.65;13.90;;;;;;;;;;5038555;28;20037;-80
2023/08/16 06:03:55;;;;;;;23.00;14.52;;;;;;;;;;5030459;28;20045;-83
2023/08/16 06:06:21;;;;;;;26.63;15.13;;;;;;;;;;5023292;28;20029;-80
2023/08/16 06:08:47;;;;;;;21.88;14.80;;;;;;;;;;5037740;28;20523;-83
2023/08/16 06:11:13;;;;;;;23.60;15.45;;;;;;;;;;5023221;28;20029;-82
2023/08/16 06:13:41;;;;;;;24.63;15.73;;;;;;;;;;5014930;28;20535;-79
2023/08/16 06:16:07;;;;;;;19.30;15.05;;;;;;;;;;5023240;28;20034;-83
2023/08/16 06:18:33;;;;;;;24.45;14.38;;;;;;;;;;5022953;28;20039;-80
2023/08/16 06:20:59;;;;;;;21.48;15.13;;;;;;;;;;5023009;28;20048;-82
2023/08/16 06:23:25;;;;;;;24.23;15.95;;;;;;;;;;5022578;28;21545;-82
2023/08/16 06:25:51;;;;;;;21.05;15.95;;;;;;;;;;5026214;28;20048;-82
2023/08/16 06:28:17;;;;;;;23.50;15.40;;;;;;;;;;5025736;28;20029;-82
2023/08/16 06:30:43;;;;;;;24.15;14.88;;;;;;;;;;5042289;28;20450;-79
2023/08/16 06:33:11;;;;;;;22.67;15.45;;;;;;;;;;5025614;28;20029;-80
2023/08/16 06:35:37;;;;;;;25.88;14.80;;;;;;;;;;5042988;28;20041;-83
2023/08/16 06:38:03;;;;;;;22.02;15.60;;;;;;;;;;5026521;28;20044;-80
2023/08/16 06:40:29;;;;;;;30.42;15.15;;;;;;;;;;5026206;28;20064;-84
2023/08/16 06:42:55;;;;;;;23.17;14.77;;;;;;;;;;5024978;28;20132;-82
2023/08/16 06:45:24;;;;;;;20.70;15.57;;;;;;;;;;5034210;28;20454;-78
2023/08/16 06:47:50;;;;;;;26.13;14.70;;;;;;;;;;5026337;28;20025;-81
2023/08/16 06:50:16;;;;;;;19.63;14.38;;;;;;;;;;5025411;28;20335;-78
2023/08/16 06:52:42;;;;;;;24.27;16.15;;;;;;;;;;5026385;28;20063;-82
2023/08/16 06:55:08;;;;;;;26.33;15.20;;;;;;;;;;5026490;28;20018;-78
2023/08/16 06:57:38;;;;;;;23.15;16.38;;;;;;;;;;5041790;28;20454;-78
2023/08/16 07:00:04;;;;;;;25.67;16.33;;;;;;;;;;5024747;28;20040;-80
2023/08/16 07:02:30;;;;;;;33.85;17.58;;;;;;;;;;5041895;28;20780;-83
2023/08/16 07:04:56;;;;;;;29.38;20.30;;;;;;;;;;5041455;28;20025;-81
2023/08/16 07:07:22;;;;;;;40.97;23.58;;;;;;;;;;5042571;28;20144;-84
2023/08/16 07:09:48;;;;;;;53.40;27.05;;;;;;;;;;5025687;28;20037;-83
2023/08/16 07:12:14;;;;;;;44.13;29.38;;;;;;;;;;5041825;28;20025;-82
2023/08/16 07:14:40;;;;;;;47.65;31.35;;;;;;;;;;5026233;28;21672;-86
2023/08/16 07:17:08;;;;;;;54.15;32.45;;;;;;;;;;5024931;28;20091;-84
2023/08/16 07:19:34;;;;;;;51.13;32.03;;;;;;;;;;5026422;28;20038;-81
2023/08/16 07:22:00;;;;;;;50.13;32.30;;;;;;;;;;5035199;28;20033;-84
2023/08/16 07:24:26;;;;;;;53.65;33.45;;;;;;;;;;5019458;28;20120;-81
2023/08/16 07:26:52;;;;;;;62.42;35.03;;;;;;;;;;5042331;28;20029;-81
2023/08/16 07:29:18;;;;;;;61.47;37.67;;;;;;;;;;5026719;28;20481;-81
2023/08/16 07:31:45;;;;;;;64.25;35.70;;;;;;;;;;5025158;28;20120;-81
2023/08/16 07:34:11;;;;;;;64.80;36.70;;;;;;;;;;5025087;28;20537;-80
2023/08/16 07:36:37;;;;;;;70.88;39.05;;;;;;;;;;5029961;28;20029;-80
2023/08/16 07:39:04;;;;;;;77.75;42.38;;;;;;;;;;5044180;28;20029;-82
2023/08/16 07:41:30;;;;;;;76.75;40.40;;;;;;;;;;5041707;28;20072;-80
2023/08/16 07:43:56;;;;;;;69.72;39.53;;;;;;;;;;5042983;28;20102;-84
2023/08/16 07:46:23;;;;;;;77.50;42.90;;;;;;;;;;5025482;28;20078;-82
2023/08/16 07:48:51;;;;;;;74.80;41.03;;;;;;;;;;5035577;28;20032;-80
2023/08/16 07:51:17;;;;;;;69.30;39.15;;;;;;;;;;5026461;28;20588;-81
2023/08/16 07:53:43;;;;;;;66.88;39.70;;;;;;;;;;5025642;28;20036;-81
2023/08/16 07:56:09;;;;;;;67.03;39.55;;;;;;;;;;5025834;28;20048;-83
2023/08/16 07:58:37;;;;;;;58.40;35.85;;;;;;;;;;5037131;28;20033;-86
2023/08/16 08:01:06;;;;;;;80.75;40.17;;;;;;;;;;5030810;28;20045;-81
2023/08/16 08:03:32;;;;;;;58.25;34.25;;;;;;;;;;5025631;28;20539;-82
2023/08/16 08:06:01;;;;;;;51.65;34.28;;;;;;;;;;5025873;28;20037;-81
2023/08/16 08:08:31;;;;;;;51.33;32.45;;;;;;;;;;5029224;28;20029;-83
2023/08/16 08:10:57;;;;;;;57.28;34.95;;;;;;;;;;5035288;28;20555;-81
2023/08/16 08:13:23;;;;;;;50.65;35.00;;;;;;;;;;5024457;28;20083;-83
2023/08/16 08:15:49;;;;;;;51.95;33.05;;;;;;;;;;5040557;28;20041;-80
2023/08/16 08:18:15;;;;;;;55.30;34.30;;;;;;;;;;5024781;28;20037;-82
2023/08/16 08:20:41;;;;;;;44.67;30.35;;;;;;;;;;5033463;28;20111;-80
2023/08/16 08:23:07;;;;;;;47.28;30.30;;;;;;;;;;5025418;28;20039;-81
2023/08/16 08:25:34;;;;;;;46.85;29.25;;;;;;;;;;5023994;28;20029;-84
2023/08/16 08:28:00;;;;;;;43.45;29.88;;;;;;;;;;5040334;28;20036;-81
2023/08/16 08:30:26;;;;;;;46.70;29.77;;;;;;;;;;5040237;28;20029;-82
2023/08/16 08:32:55;;;;;;;51.75;31.05;;;;;;;;;;5033000;28;20859;-80
2023/08/16 08:35:21;;;;;;;41.65;27.90;;;;;;;;;;5039842;28;20048;-82
2023/08/16 08:37:49;;;;;;;42.33;27.23;;;;;;;;;;5017069;28;20034;-84
2023/08/16 08:40:15;;;;;;;40.13;27.25;;;;;;;;;;5023192;28;20116;-80
2023/08/16 08:42:42;;;;;;;38.72;26.25;;;;;;;;;;5068948;22;20052;-81
2023/08/16 08:45:08;;;;;;;36.35;24.65;;;;;;;;;;5004455;28;20065;-83
2023/08/16 08:47:35;;;;;;;37.30;24.15;;;;;;;;;;5019976;28;20096;-84
2023/08/16 08:50:02;;;;;;;36.90;24.90;;;;;;;;;;5004772;28;20029;-85
2023/08/16 08:52:29;;;;;;;36.97;21.98;;;;;;;;;;5005354;28;20025;-83
2023/08/16 08:54:55;;;;;;;33.60;23.77;;;;;;;;;;5005741;28;20536;-80
2023/08/16 08:57:21;;;;;;;31.38;22.58;;;;;;;;;;5022174;28;20121;-79
2023/08/16 08:59:49;;;;;;;30.60;22.15;;;;;;;;;;5019768;28;20112;-83
2023/08/16 09:02:17;;;;;;;31.70;22.58;;;;;;;;;;5019855;28;20033;-81
2023/08/16 09:04:44;;;;;;;32.05;22.02;;;;;;;;;;5004298;28;20088;-81
2023/08/16 09:07:12;;;;;;;31.17;20.20;;;;;;;;;;5019859;28;20034;-81
2023/08/16 09:09:39;;;;;;;24.67;18.58;;;;;;;;;;5018973;28;20092;-83
2023/08/16 09:12:05;;;;;;;28.88;18.55;;;;;;;;;;5019649;28;20116;-83
2023/08/16 09:14:32;;;;;;;26.50;18.02;;;;;;;;;;5004419;28;20032;-81
2023/08/16 09:17:00;;;;;;;25.77;18.55;;;;;;;;;;5005207;28;20033;-80
2023/08/16 09:19:29;;;;;;;28.95;17.85;;;;;;;;;;5003342;28;20091;-82
2023/08/16 09:21:59;;;;;;;25.98;18.25;;;;;;;;;;5019306;28;20037;-82
2023/08/16 09:24:25;;;;;;;30.27;19.85;;;;;;;;;;5019432;28;20033;-79
2023/08/16 09:26:52;;;;;;;26.83;18.23;;;;;;;;;;5020460;28;20044;-83
2023/08/16 09:29:18;;;;;;;31.00;19.80;;;;;;;;;;5004140;28;20040;-82
2023/08/16 09:31:46;;;;;;;29.48;20.80;;;;;;;;;;5003275;28;20026;-80
2023/08/16 09:34:13;;;;;;;24.00;18.63;;;;;;;;;;5020420;28;20030;-80
2023/08/16 09:36:42;;;;;;;25.75;18.10;;;;;;;;;;5004086;28;20406;-80
2023/08/16 09:39:09;;;;;;;27.58;18.05;;;;;;;;;;5003964;28;20025;-81
2023/08/16 09:41:35;;;;;;;25.55;16.38;;;;;;;;;;5022352;28;20049;-81
2023/08/16 09:44:08;;;;;;;22.67;16.35;;;;;;;;;;5003876;28;20084;-82
2023/08/16 09:46:35;;;;;;;27.00;18.00;;;;;;;;;;5022567;28;20037;-81
2023/08/16 09:49:03;;;;;;;24.27;17.17;;;;;;;;;;5019203;28;20029;-80
2023/08/16 09:51:31;;;;;;;31.95;17.95;;;;;;;;;;5003176;28;20059;-81
2023/08/16 09:53:57;;;;;;;20.80;16.30;;;;;;;;;;5020455;28;20026;-79
2023/08/16 09:56:25;;;;;;;22.83;15.57;;;;;;;;;;5019699;28;20029;-79
2023/08/16 09:58:54;;;;;;;23.52;15.98;;;;;;;;;;5003443;28;20537;-80
2023/08/16 10:01:23;;;;;;;23.85;14.02;;;;;;;;;;5025167;28;20029;-80
2023/08/16 10:03:55;;;;;;;22.25;14.13;;;;;;;;;;5023341;28;20171;-82
2023/08/16 10:06:25;;;;;;;17.40;12.68;;;;;;;;;;5025216;28;20025;-80
2023/08/16 10:08:52;;;;;;;17.77;12.10;;;;;;;;;;5008555;28;20033;-81
2023/08/16 10:11:19;;;;;;;17.65;13.70;;;;;;;;;;5010148;28;20087;-82
2023/08/16 10:13:47;;;;;;;18.75;14.18;;;;;;;;;;5023145;28;20041;-81
2023/08/16 10:16:15;;;;;;;21.95;14.25;;;;;;;;;;5007420;28;20025;-82
2023/08/16 10:18:46;;;;;;;23.63;14.02;;;;;;;;;;5024072;28;20021;-80
2023/08/16 10:21:16;;;;;;;21.65;13.95;;;;;;;;;;5023541;28;20426;-79
2023/08/16 10:23:42;;;;;;;20.70;13.10;;;;;;;;;;5023103;28;20034;-79
2023/08/16 10:26:16;;;;;;;21.58;15.65;;;;;;;;;;5004598;28;20691;-81
2023/08/16 10:28:47;;;;;;;20.15;16.15;;;;;;;;;;5005237;28;20029;-80
2023/08/16 10:31:14;;;;;;;18.38;13.85;;;;;;;;;;5022733;28;20541;-77
2023/08/16 10:33:44;;;;;;;22.42;14.80;;;;;;;;;;5006328;28;20210;-79
2023/08/16 10:36:12;;;;;;;27.70;15.80;;;;;;;;;;5006979;28;20489;-79
2023/08/16 10:38:42;;;;;;;21.92;15.27;;;;;;;;;;5021974;28;20047;-82
2023/08/16 10:41:15;;;;;;;18.90;14.35;;;;;;;;;;5006151;28;20569;-80
2023/08/16 10:43:47;;;;;;;23.73;16.05;;;;;;;;;;5021776;28;20053;-78
2023/08/16 10:46:16;;;;;;;22.13;14.35;;;;;;;;;;5021775;28;20044;-81
2023/08/16 10:48:42;;;;;;;20.02;15.05;;;;;;;;;;5022194;28;20071;-81
2023/08/16 10:51:08;;;;;;;23.45;15.07;;;;;;;;;;5021276;28;20130;-80
2023/08/16 10:53:37;;;;;;;20.40;15.45;;;;;;;;;;5021851;28;20052;-78
2023/08/16 10:56:06;;;;;;;18.55;14.60;;;;;;;;;;5006352;28;20033;-79
2023/08/16 10:58:42;;;;;;;23.48;16.60;;;;;;;;;;5007157;28;20156;-80
2023/08/16 11:01:08;;;;;;;18.02;14.68;;;;;;;;;;5004895;28;20022;-80
2023/08/16 11:03:37;;;;;;;20.73;13.50;;;;;;;;;;5005174;28;20030;-80
2023/08/16 11:06:12;;;;;;;20.73;15.05;;;;;;;;;;5003915;28;20568;-79
2023/08/16 11:08:47;;;;;;;20.58;15.57;;;;;;;;;;5003548;28;20470;-81
2023/08/16 11:11:13;;;;;;;17.75;14.48;;;;;;;;;;5003933;28;20021;-81
2023/08/16 11:13:40;;;;;;;19.65;15.18;;;;;;;;;;5005929;28;20040;-80
2023/08/16 11:16:10;;;;;;;17.35;13.52;;;;;;;;;;5021580;28;20075;-78
2023/08/16 11:18:37;;;;;;;21.60;15.60;;;;;;;;;;5021715;28;20057;-78
2023/08/16 11:21:07;;;;;;;17.70;14.15;;;;;;;;;;5005049;28;20116;-81
2023/08/16 11:23:35;;;;;;;21.42;14.63;;;;;;;;;;5021285;28;20022;-77
2023/08/16 11:26:06;;;;;;;19.98;16.30;;;;;;;;;;5004562;28;20038;-79
2023/08/16 11:28:33;;;;;;;23.48;17.45;;;;;;;;;;5022356;28;20095;-81
2023/08/16 11:30:59;;;;;;;21.67;15.27;;;;;;;;;;5005133;28;20025;-82
2023/08/16 11:33:35;;;;;;;21.67;17.35;;;;;;;;;;5003654;28;20040;-79
2023/08/16 11:36:02;;;;;;;18.17;14.90;;;;;;;;;;5006267;28;20029;-78
2023/08/16 11:38:30;;;;;;;24.58;16.23;;;;;;;;;;5020666;28;20477;-78
2023/08/16 11:40:57;;;;;;;27.15;15.48;;;;;;;;;;5007057;28;20057;-81
2023/08/16 11:43:30;;;;;;;18.00;13.45;;;;;;;;;;5020175;28;20672;-82
2023/08/16 11:45:57;;;;;;;16.23;12.60;;;;;;;;;;5005872;28;20095;-79
2023/08/16 11:48:29;;;;;;;16.58;12.93;;;;;;;;;;5021168;28;20018;-82
2023/08/16 11:50:55;;;;;;;22.98;16.13;;;;;;;;;;5005628;28;20030;-79
2023/08/16 11:53:22;;;;;;;18.60;15.15;;;;;;;;;;5006843;28;20111;-78
2023/08/16 11:56:17;;;;;;;24.05;14.73;;;;;;;;;;5021237;28;21199;-82
2023/08/16 11:58:49;;;;;;;18.83;13.68;;;;;;;;;;5013160;28;20100;-80
2023/08/16 12:01:15;;;;;;;16.42;13.02;;;;;;;;;;5020912;28;20265;-81
2023/08/16 12:03:45;;;;;;;22.27;15.70;;;;;;;;;;5019470;28;20090;-80
2023/08/16 12:06:11;;;;;;;17.05;12.70;;;;;;;;;;5004755;28;20079;-80
2023/08/16 12:08:46;;;;;;;21.98;14.88;;;;;;;;;;5020943;28;20676;-79
2023/08/16 12:11:12;;;;;;;22.50;13.85;;;;;;;;;;5022979;28;20445;-82
2023/08/16 12:13:40;;;;;;;14.98;13.02;;;;;;;;;;5022290;28;20037;-80
2023/08/16 12:16:09;;;;;;;22.00;14.60;;;;;;;;;;5021234;28;20034;-81
2023/08/16 12:18:35;;;;;;;17.67;12.73;;;;;;;;;;5022890;28;20041;-80
2023/08/16 12:21:03;;;;;;;19.75;14.20;;;;;;;;;;5005773;28;20029;-81
2023/08/16 12:23:29;;;;;;;15.18;12.30;;;;;;;;;;5021713;28;20385;-79
2023/08/16 12:25:58;;;;;;;18.55;13.15;;;;;;;;;;5002494;28;20039;-82
2023/08/16 12:28:24;;;;;;;17.38;13.40;;;;;;;;;;5005024;28;20053;-79
2023/08/16 12:30:50;;;;;;;20.27;12.32;;;;;;;;;;5021602;28;20160;-78
2023/08/16 12:33:16;;;;;;;16.23;12.15;;;;;;;;;;5005023;28;20036;-81
2023/08/16 12:35:42;;;;;;;18.42;12.05;;;;;;;;;;5021727;28;20033;-79
2023/08/16 12:38:08;;;;;;;17.10;10.18;;;;;;;;;;5003756;28;20033;-79
2023/08/16 12:40:34;;;;;;;16.77;13.30;;;;;;;;;;5001592;28;20069;-78
2023/08/16 12:43:02;;;;;;;19.00;13.82;;;;;;;;;;5018687;28;20036;-79
2023/08/16 12:45:28;;;;;;;24.75;14.63;;;;;;;;;;5002490;28;20072;-78
2023/08/16 12:47:56;;;;;;;17.63;12.85;;;;;;;;;;5004776;28;20765;-78
2023/08/16 12:50:22;;;;;;;22.67;14.23;;;;;;;;;;5001520;28;20108;-78
2023/08/16 12:52:48;;;;;;;15.10;11.48;;;;;;;;;;5019513;28;20053;-77
2023/08/16 12:55:14;;;;;;;19.65;12.52;;;;;;;;;;5005007;28;20121;-79
2023/08/16 12:57:40;;;;;;;16.73;12.77;;;;;;;;;;5021227;28;20505;-78
2023/08/16 13:00:11;;;;;;;17.10;13.07;;;;;;;;;;5021971;28;20030;-81
2023/08/16 13:02:38;;;;;;;14.75;11.40;;;;;;;;;;5022090;28;20582;-81
2023/08/16 13:05:05;;;;;;;17.33;12.32;;;;;;;;;;5002031;28;20044;-79
2023/08/16 13:07:33;;;;;;;19.98;13.60;;;;;;;;;;5021627;28;20029;-79
2023/08/16 13:09:59;;;;;;;17.65;12.25;;;;;;;;;;5004840;28;20022;-81
2023/08/16 13:12:25;;;;;;;18.63;12.13;;;;;;;;;;5021105;28;20036;-79
2023/08/16 13:14:51;;;;;;;17.48;11.43;;;;;;;;;;5002278;28;20121;-80
2023/08/16 13:17:17;;;;;;;14.43;11.63;;;;;;;;;;5021500;28;20455;-78
2023/08/16 13:19:46;;;;;;;16.25;11.35;;;;;;;;;;5003072;28;20060;-79
2023/08/16 13:22:13;;;;;;;15.02;10.70;;;;;;;;;;5002484;28;20057;-81
2023/08/16 13:24:39;;;;;;;18.48;12.10;;;;;;;;;;5020908;28;20033;-81
2023/08/16 13:27:06;;;;;;;12.73;9.88;;;;;;;;;;5001795;28;20033;-78
2023/08/16 13:29:32;;;;;;;12.77;10.25;;;;;;;;;;5001869;28;20032;-79
2023/08/16 13:32:00;;;;;;;11.82;9.00;;;;;;;;;;5003654;28;20398;-78
2023/08/16 13:34:29;;;;;;;16.30;8.90;;;;;;;;;;5002249;28;20026;-78
2023/08/16 13:36:57;;;;;;;11.25;8.23;;;;;;;;;;5002947;28;20034;-81
2023/08/16 13:39:26;;;;;;;16.25;10.88;;;;;;;;;;5018588;28;20080;-80
2023/08/16 13:41:52;;;;;;;14.18;9.02;;;;;;;;;;5023648;28;20116;-80
2023/08/16 13:44:18;;;;;;;16.08;10.25;;;;;;;;;;5005548;28;20045;-80
2023/08/16 13:46:44;;;;;;;19.13;10.65;;;;;;;;;;5003116;28;20529;-80
2023/08/16 13:49:15;;;;;;;14.77;10.32;;;;;;;;;;5017997;28;20021;-81
2023/08/16 13:51:41;;;;;;;16.67;10.15;;;;;;;;;;5002186;28;20033;-79
2023/08/16 13:54:09;;;;;;;10.75;8.80;;;;;;;;;;5020278;28;20036;-79
2023/08/16 13:56:37;;;;;;;11.30;8.75;;;;;;;;;;5002907;28;20046;-81
2023/08/16 13:59:04;;;;;;;17.05;9.13;;;;;;;;;;5003421;28;20107;-79
2023/08/16 14:01:30;;;;;;;12.00;8.20;;;;;;;;;;5020211;28;20484;-79
2023/08/16 14:03:57;;;;;;;15.55;7.82;;;;;;;;;;5017918;28;20033;-79
2023/08/16 14:06:23;;;;;;;15.35;9.40;;;;;;;;;;5018706;28;20108;-78
2023/08/16 14:08:49;;;;;;;13.95;8.80;;;;;;;;;;5019035;28;20080;-80
2023/08/16 14:11:15;;;;;;;13.75;8.27;;;;;;;;;;5002362;28;20029;-81
2023/08/16 14:13:41;;;;;;;14.20;8.85;;;;;;;;;;5003524;28;20980;-80
2023/08/16 14:16:07;;;;;;;14.18;8.68;;;;;;;;;;5001154;28;20026;-80
2023/08/16 14:18:34;;;;;;;13.05;9.13;;;;;;;;;;5019149;28;20033;-79